sensor_id;sensor_type;location;lat;lon;timestamp;pressure;altitude;pressure_sealevel;temperature;humidity
21574;BME280;10948;48.706;9.258;2023-08-01T00:01:00;96800.53;;;19.26;100.00
21574;BME280;10948;48.706;9.258;2023-08-01T00:03:25;96787.69;;;19.15;100.00
21574;BME280;10948;48.706;9.258;2023-08-01T00:05:50;96783.41;;;19.14;100.00
21574;BME280;10948;48.706;9.258;2023-08-01T00:08:16;96781.75;;;19.21;100.00
21574;BME280;10948;48.706;9.258;2023-08-01T00:10:41;96783.06;;;19.25;100.00
21574;BME280;10948;48.706;9.258;2023-08-01T00:13:06;96777.44;;;19.28;100.00
21574;BME280;10948;48.706;9.258;2023-08-01T00:15:32;96770.69;;;19.18;100.00
21574;BME280;10948;48.706;9.258;2023-08-01T00:17:57;96761.47;;;19.22;100.00
21574;BME280;10948;48.706;9.258;2023-08-01T00:20:22;96756.66;;;19.25;100.00
21574;BME280;10948;48.706;9.258;2023-08-01T00:22:48;96738.38;;;19.24;100.00
21574;BME280;10948;48.706;9.258;2023-08-01T00:25:13;96734.75;;;19.25;100.00
21574;BME280;10948;48.706;9.258;2023-08-01T00:27:38;96739.19;;;19.24;100.00
21574;BME280;10948;48.706;9.258;2023-08-01T00:30:04;96736.41;;;19.26;100.00
21574;BME280;10948;48.706;9.258;2023-08-01T00:32:29;96738.91;;;19.03;100.00
21574;BME280;10948;48.706;9.258;2023-08-01T00:34:54;96741.53;;;19.03;100.00
21574;BME280;10948;48.706;9.258;2023-08-01T00:37:20;96733.47;;;19.05;100.00
21574;BME280;10948;48.706;9.258;2023-08-01T00:39:45;96728.19;;;19.05;100.00
21574;BME280;10948;48.706;9.258;2023-08-01T00:42:10;96722.06;;;19.12;100.00
21574;BME280;10948;48.706;9.258;2023-08-01T00:44:35;96724.06;;;19.02;100.00
21574;BME280;10948;48.706;9.258;2023-08-01T00:47:00;96720.16;;;18.90;100.00
21574;BME280;10948;48.706;9.258;2023-08-01T00:49:26;96713.66;;;19.09;100.00
21574;BME280;10948;48.706;9.258;2023-08-01T00:51:51;96712.53;;;19.03;100.00
21574;BME280;10948;48.706;9.258;2023-08-01T00:54:17;96708.06;;;19.12;100.00
21574;BME280;10948;48.706;9.258;2023-08-01T00:56:42;96706.25;;;19.04;100.00
21574;BME280;10948;48.706;9.258;2023-08-01T00:59:08;96699.97;;;19.05;100.00
21574;BME280;10948;48.706;9.258;2023-08-01T01:01:33;96691.94;;;18.99;100.00
21574;BME280;10948;48.706;9.258;2023-08-01T01:03:58;96682.19;;;18.99;100.00
21574;BME280;10948;48.706;9.258;2023-08-01T01:06:25;96694.13;;;18.87;100.00
21574;BME280;10948;48.706;9.258;2023-08-01T01:08:53;96698.06;;;18.91;100.00
21574;BME280;10948;48.706;9.258;2023-08-01T01:11:20;96676.31;;;18.89;100.00
21574;BME280;10948;48.706;9.258;2023-08-01T01:13:45;96684.25;;;18.81;100.00
21574;BME280;10948;48.706;9.258;2023-08-01T01:16:10;96685.72;;;18.76;100.00
21574;BME280;10948;48.706;9.258;2023-08-01T01:18:35;96692.31;;;18.80;100.00
21574;BME280;10948;48.706;9.258;2023-08-01T01:21:01;96688.47;;;18.98;100.00
21574;BME280;10948;48.706;9.258;2023-08-01T01:23:26;96677.84;;;18.68;100.00
21574;BME280;10948;48.706;9.258;2023-08-01T01:25:52;96674.88;;;18.63;100.00
21574;BME280;10948;48.706;9.258;2023-08-01T01:28:18;96668.38;;;18.97;100.00
21574;BME280;10948;48.706;9.258;2023-08-01T01:30:44;96659.38;;;18.76;100.00
21574;BME280;10948;48.706;9.258;2023-08-01T01:33:10;96664.81;;;18.82;100.00
21574;BME280;10948;48.706;9.258;2023-08-01T01:35:36;96650.13;;;18.80;100.00
21574;BME280;10948;48.706;9.258;2023-08-01T01:38:01;96646.03;;;18.77;100.00
21574;BME280;10948;48.706;9.258;2023-08-01T01:40:30;96625.56;;;18.87;100.00
21574;BME280;10948;48.706;9.258;2023-08-01T01:42:55;96615.50;;;18.91;100.00
21574;BME280;10948;48.706;9.258;2023-08-01T01:45:21;96631.69;;;18.80;100.00
21574;BME280;10948;48.706;9.258;2023-08-01T01:47:46;96631.69;;;18.80;100.00
21574;BME280;10948;48.706;9.258;2023-08-01T01:50:11;96613.91;;;18.74;100.00
21574;BME280;10948;48.706;9.258;2023-08-01T01:52:36;96614.06;;;18.72;100.00
21574;BME280;10948;48.706;9.258;2023-08-01T01:55:02;96597.41;;;18.80;100.00
21574;BME280;10948;48.706;9.258;2023-08-01T01:57:27;96606.53;;;18.61;100.00
21574;BME280;10948;48.706;9.258;2023-08-01T01:59:52;96593.38;;;18.61;100.00
21574;BME280;10948;48.706;9.258;2023-08-01T02:02:17;96596.44;;;18.73;100.00
21574;BME280;10948;48.706;9.258;2023-08-01T02:04:44;96585.06;;;18.72;100.00
21574;BME280;10948;48.706;9.258;2023-08-01T02:07:10;96581.22;;;18.83;100.00
21574;BME280;10948;48.706;9.258;2023-08-01T02:09:35;96588.03;;;18.77;100.00
21574;BME280;10948;48.706;9.258;2023-08-01T02:12:00;96587.91;;;18.71;100.00
21574;BME280;10948;48.706;9.258;2023-08-01T02:14:25;96585.75;;;18.66;100.00
21574;BME280;10948;48.706;9.258;2023-08-01T02:16:50;96590.81;;;18.76;100.00
21574;BME280;10948;48.706;9.258;2023-08-01T02:19:16;96586.22;;;18.70;100.00
21574;BME280;10948;48.706;9.258;2023-08-01T02:21:41;96581.44;;;18.73;100.00
21574;BME280;10948;48.706;9.258;2023-08-01T02:24:06;96563.19;;;18.72;100.00
21574;BME280;10948;48.706;9.258;2023-08-01T02:26:31;96574.91;;;18.61;100.00
21574;BME280;10948;48.706;9.258;2023-08-01T02:28:56;96574.56;;;18.64;100.00
21574;BME280;10948;48.706;9.258;2023-08-01T02:31:22;96573.91;;;18.62;100.00
21574;BME280;10948;48.706;9.258;2023-08-01T02:33:47;96585.06;;;18.72;100.00
21574;BME280;10948;48.706;9.258;2023-08-01T02:36:12;96587.22;;;18.77;100.00
21574;BME280;10948;48.706;9.258;2023-08-01T02:38:37;96582.47;;;18.64;100.00
21574;BME280;10948;48.706;9.258;2023-08-01T02:41:03;96585.25;;;18.71;100.00
21574;BME280;10948;48.706;9.258;2023-08-01T02:43:28;96577.84;;;18.74;100.00
21574;BME280;10948;48.706;9.258;2023-08-01T02:45:53;96572.75;;;18.65;100.00
21574;BME280;10948;48.706;9.258;2023-08-01T02:48:18;96577.88;;;18.58;100.00
21574;BME280;10948;48.706;9.258;2023-08-01T02:50:44;96579.00;;;18.72;100.00
21574;BME280;10948;48.706;9.258;2023-08-01T02:53:10;96572.03;;;18.79;100.00
21574;BME280;10948;48.706;9.258;2023-08-01T02:55:36;96576.41;;;18.64;100.00
21574;BME280;10948;48.706;9.258;2023-08-01T02:58:01;96581.78;;;18.70;100.00
21574;BME280;10948;48.706;9.258;2023-08-01T03:00:26;96580.16;;;18.69;100.00
21574;BME280;10948;48.706;9.258;2023-08-01T03:02:51;96580.84;;;18.63;100.00
21574;BME280;10948;48.706;9.258;2023-08-01T03:05:17;96579.16;;;18.70;100.00
21574;BME280;10948;48.706;9.258;2023-08-01T03:07:42;96583.47;;;18.63;100.00
21574;BME280;10948;48.706;9.258;2023-08-01T03:10:07;96574.59;;;18.56;100.00
21574;BME280;10948;48.706;9.258;2023-08-01T03:12:33;96570.66;;;18.60;100.00
21574;BME280;10948;48.706;9.258;2023-08-01T03:14:59;96567.00;;;18.61;100.00
21574;BME280;10948;48.706;9.258;2023-08-01T03:17:24;96564.06;;;18.56;100.00
21574;BME280;10948;48.706;9.258;2023-08-01T03:19:49;96559.34;;;18.44;100.00
21574;BME280;10948;48.706;9.258;2023-08-01T03:22:14;96556.00;;;18.58;100.00
21574;BME280;10948;48.706;9.258;2023-08-01T03:24:40;96559.88;;;18.70;100.00
21574;BME280;10948;48.706;9.258;2023-08-01T03:27:05;96551.47;;;18.74;100.00
21574;BME280;10948;48.706;9.258;2023-08-01T03:29:31;96543.88;;;18.71;100.00
21574;BME280;10948;48.706;9.258;2023-08-01T03:31:57;96542.22;;;18.78;100.00
21574;BME280;10948;48.706;9.258;2023-08-01T03:34:24;96553.69;;;18.85;100.00
21574;BME280;10948;48.706;9.258;2023-08-01T03:36:52;96543.47;;;18.90;100.00
21574;BME280;10948;48.706;9.258;2023-08-01T03:39:17;96546.47;;;18.87;100.00
21574;BME280;10948;48.706;9.258;2023-08-01T03:41:42;96551.53;;;18.97;100.00
21574;BME280;10948;48.706;9.258;2023-08-01T03:44:07;96554.19;;;18.89;100.00
21574;BME280;10948;48.706;9.258;2023-08-01T03:46:32;96554.31;;;18.95;100.00
21574;BME280;10948;48.706;9.258;2023-08-01T03:48:58;96554.13;;;19.05;100.00
21574;BME280;10948;48.706;9.258;2023-08-01T03:51:23;96552.94;;;19.07;100.00
21574;BME280;10948;48.706;9.258;2023-08-01T03:53:48;96559.16;;;19.14;100.00
21574;BME280;10948;48.706;9.258;2023-08-01T03:56:13;96563.31;;;19.09;100.00
21574;BME280;10948;48.706;9.258;2023-08-01T03:58:38;96560.38;;;19.04;100.00
21574;BME280;10948;48.706;9.258;2023-08-01T04:01:04;96568.78;;;19.07;100.00
21574;BME280;10948;48.706;9.258;2023-08-01T04:03:31;96570.56;;;19.07;100.00
21574;BME280;10948;48.706;9.258;2023-08-01T04:05:57;96563.03;;;19.04;100.00
21574;BME280;10948;48.706;9.258;2023-08-01T04:08:22;96564.78;;;19.11;100.00
21574;BME280;10948;48.706;9.258;2023-08-01T04:10:48;96562.28;;;19.18;100.00
21574;BME280;10948;48.706;9.258;2023-08-01T04:13:14;96553.38;;;19.19;100.00
21574;BME280;10948;48.706;9.258;2023-08-01T04:15:40;96549.09;;;19.18;100.00
21574;BME280;10948;48.706;9.258;2023-08-01T04:18:05;96541.88;;;19.12;100.00
21574;BME280;10948;48.706;9.258;2023-08-01T04:20:30;96528.47;;;19.13;100.00
21574;BME280;10948;48.706;9.258;2023-08-01T04:22:55;96494.03;;;19.15;100.00
21574;BME280;10948;48.706;9.258;2023-08-01T04:25:21;96483.72;;;19.05;100.00
21574;BME280;10948;48.706;9.258;2023-08-01T04:27:49;96481.53;;;19.09;100.00
21574;BME280;10948;48.706;9.258;2023-08-01T04:30:14;96471.81;;;19.09;100.00
21574;BME280;10948;48.706;9.258;2023-08-01T04:32:41;96466.47;;;19.17;100.00
21574;BME280;10948;48.706;9.258;2023-08-01T04:35:06;96447.00;;;19.18;100.00
21574;BME280;10948;48.706;9.258;2023-08-01T04:37:32;96429.56;;;19.17;100.00
21574;BME280;10948;48.706;9.258;2023-08-01T04:39:57;96417.69;;;19.21;100.00
21574;BME280;10948;48.706;9.258;2023-08-01T04:42:22;96400.22;;;19.35;100.00
21574;BME280;10948;48.706;9.258;2023-08-01T04:44:48;96385.56;;;19.32;100.00
21574;BME280;10948;48.706;9.258;2023-08-01T04:47:13;96359.84;;;19.34;100.00
21574;BME280;10948;48.706;9.258;2023-08-01T04:49:38;96344.03;;;19.34;100.00
21574;BME280;10948;48.706;9.258;2023-08-01T04:52:03;96284.78;;;19.37;100.00
21574;BME280;10948;48.706;9.258;2023-08-01T04:54:29;96355.75;;;19.32;100.00
21574;BME280;10948;48.706;9.258;2023-08-01T04:56:54;96362.50;;;19.34;100.00
21574;BME280;10948;48.706;9.258;2023-08-01T04:59:19;96383.84;;;19.39;100.00
21574;BME280;10948;48.706;9.258;2023-08-01T05:01:44;96374.97;;;19.40;100.00
21574;BME280;10948;48.706;9.258;2023-08-01T05:04:10;96375.78;;;19.41;100.00
21574;BME280;10948;48.706;9.258;2023-08-01T05:06:35;96379.88;;;19.43;100.00
21574;BME280;10948;48.706;9.258;2023-08-01T05:09:00;96393.06;;;19.43;100.00
21574;BME280;10948;48.706;9.258;2023-08-01T05:11:25;96392.78;;;19.38;100.00
21574;BME280;10948;48.706;9.258;2023-08-01T05:13:51;96391.78;;;19.39;100.00
21574;BME280;10948;48.706;9.258;2023-08-01T05:16:16;96398.63;;;19.48;100.00
21574;BME280;10948;48.706;9.258;2023-08-01T05:18:41;96403.91;;;19.48;100.00
21574;BME280;10948;48.706;9.258;2023-08-01T05:21:06;96429.13;;;19.51;100.00
21574;BME280;10948;48.706;9.258;2023-08-01T05:23:32;96437.22;;;19.49;100.00
21574;BME280;10948;48.706;9.258;2023-08-01T05:25:57;96418.13;;;19.47;100.00
21574;BME280;10948;48.706;9.258;2023-08-01T05:28:22;96413.81;;;19.46;100.00
21574;BME280;10948;48.706;9.258;2023-08-01T05:30:47;96415.28;;;19.49;100.00
21574;BME280;10948;48.706;9.258;2023-08-01T05:33:12;96427.75;;;19.55;100.00
21574;BME280;10948;48.706;9.258;2023-08-01T05:35:38;96456.03;;;19.46;100.00
21574;BME280;10948;48.706;9.258;2023-08-01T05:38:03;96463.31;;;19.44;100.00
21574;BME280;10948;48.706;9.258;2023-08-01T05:40:28;96460.22;;;19.41;100.00
21574;BME280;10948;48.706;9.258;2023-08-01T05:42:54;96454.13;;;19.40;100.00
21574;BME280;10948;48.706;9.258;2023-08-01T05:45:20;96450.13;;;19.44;100.00
21574;BME280;10948;48.706;9.258;2023-08-01T05:47:45;96443.59;;;19.55;100.00
21574;BME280;10948;48.706;9.258;2023-08-01T05:50:10;96433.56;;;19.50;100.00
21574;BME280;10948;48.706;9.258;2023-08-01T05:52:35;96436.13;;;19.58;100.00
21574;BME280;10948;48.706;9.258;2023-08-01T05:55:01;96442.25;;;19.59;100.00
21574;BME280;10948;48.706;9.258;2023-08-01T05:57:26;96450.25;;;19.65;100.00
21574;BME280;10948;48.706;9.258;2023-08-01T05:59:51;96447.28;;;19.68;100.00
21574;BME280;10948;48.706;9.258;2023-08-01T06:02:16;96451.13;;;19.80;100.00
21574;BME280;10948;48.706;9.258;2023-08-01T06:04:42;96454.38;;;19.82;98.73
21574;BME280;10948;48.706;9.258;2023-08-01T06:07:07;96454.72;;;19.79;100.00
21574;BME280;10948;48.706;9.258;2023-08-01T06:09:32;96464.66;;;19.77;99.83
21574;BME280;10948;48.706;9.258;2023-08-01T06:11:57;96467.94;;;19.79;98.31
21574;BME280;10948;48.706;9.258;2023-08-01T06:14:23;96455.09;;;19.76;97.40
21574;BME280;10948;48.706;9.258;2023-08-01T06:16:48;96455.47;;;19.73;97.93
21574;BME280;10948;48.706;9.258;2023-08-01T06:19:13;96459.56;;;19.76;96.72
21574;BME280;10948;48.706;9.258;2023-08-01T06:21:38;96471.78;;;19.77;97.96
21574;BME280;10948;48.706;9.258;2023-08-01T06:24:04;96466.03;;;19.73;98.53
21574;BME280;10948;48.706;9.258;2023-08-01T06:26:29;96463.13;;;19.68;100.00
21574;BME280;10948;48.706;9.258;2023-08-01T06:28:54;96463.13;;;19.68;100.00
21574;BME280;10948;48.706;9.258;2023-08-01T06:31:20;96462.03;;;19.77;99.65
21574;BME280;10948;48.706;9.258;2023-08-01T06:33:45;96454.72;;;19.79;99.43
21574;BME280;10948;48.706;9.258;2023-08-01T06:36:10;96460.84;;;19.80;97.34
21574;BME280;10948;48.706;9.258;2023-08-01T06:38:36;96476.22;;;19.76;97.74
21574;BME280;10948;48.706;9.258;2023-08-01T06:41:01;96477.56;;;19.72;97.91
21574;BME280;10948;48.706;9.258;2023-08-01T06:43:28;96476.69;;;19.80;98.70
21574;BME280;10948;48.706;9.258;2023-08-01T06:45:54;96465.91;;;19.67;100.00
21574;BME280;10948;48.706;9.258;2023-08-01T06:48:19;96475.66;;;19.66;100.00
21574;BME280;10948;48.706;9.258;2023-08-01T06:50:45;96470.38;;;19.66;100.00
21574;BME280;10948;48.706;9.258;2023-08-01T06:53:10;96474.47;;;19.54;100.00
21574;BME280;10948;48.706;9.258;2023-08-01T06:55:36;96491.47;;;19.52;100.00
21574;BME280;10948;48.706;9.258;2023-08-01T06:58:01;96494.34;;;19.42;100.00
21574;BME280;10948;48.706;9.258;2023-08-01T07:00:26;96488.94;;;19.36;100.00
21574;BME280;10948;48.706;9.258;2023-08-01T07:02:51;96480.47;;;19.26;100.00
21574;BME280;10948;48.706;9.258;2023-08-01T07:05:17;96477.59;;;19.35;100.00
21574;BME280;10948;48.706;9.258;2023-08-01T07:07:42;96467.13;;;19.42;100.00
21574;BME280;10948;48.706;9.258;2023-08-01T07:10:08;96472.88;;;19.45;100.00
21574;BME280;10948;48.706;9.258;2023-08-01T07:12:33;96475.03;;;19.64;100.00
21574;BME280;10948;48.706;9.258;2023-08-01T07:14:59;96482.38;;;19.54;100.00
21574;BME280;10948;48.706;9.258;2023-08-01T07:17:24;96480.47;;;19.63;100.00
21574;BME280;10948;48.706;9.258;2023-08-01T07:19:49;96485.94;;;19.61;100.00
21574;BME280;10948;48.706;9.258;2023-08-01T07:22:15;96479.53;;;19.56;100.00
21574;BME280;10948;48.706;9.258;2023-08-01T07:24:40;96483.38;;;19.53;100.00
21574;BME280;10948;48.706;9.258;2023-08-01T07:27:05;96477.81;;;19.48;100.00
21574;BME280;10948;48.706;9.258;2023-08-01T07:29:30;96482.00;;;19.57;100.00
21574;BME280;10948;48.706;9.258;2023-08-01T07:31:56;96490.69;;;19.66;100.00
21574;BME280;10948;48.706;9.258;2023-08-01T07:34:21;96501.34;;;19.72;100.00
21574;BME280;10948;48.706;9.258;2023-08-01T07:36:47;96503.94;;;19.80;100.00
21574;BME280;10948;48.706;9.258;2023-08-01T07:39:13;96509.63;;;19.69;100.00
21574;BME280;10948;48.706;9.258;2023-08-01T07:41:38;96507.78;;;19.55;100.00
21574;BME280;10948;48.706;9.258;2023-08-01T07:44:04;96508.25;;;19.36;100.00
21574;BME280;10948;48.706;9.258;2023-08-01T07:46:29;96519.44;;;19.38;100.00
21574;BME280;10948;48.706;9.258;2023-08-01T07:48:54;96513.59;;;19.28;100.00
21574;BME280;10948;48.706;9.258;2023-08-01T07:51:19;96526.84;;;19.20;100.00
21574;BME280;10948;48.706;9.258;2023-08-01T07:53:44;96534.72;;;18.90;100.00
21574;BME280;10948;48.706;9.258;2023-08-01T07:56:10;96538.88;;;18.84;100.00
21574;BME280;10948;48.706;9.258;2023-08-01T07:58:35;96538.63;;;18.71;100.00
21574;BME280;10948;48.706;9.258;2023-08-01T08:01:04;96534.44;;;18.54;100.00
21574;BME280;10948;48.706;9.258;2023-08-01T08:03:29;96506.47;;;18.37;100.00
21574;BME280;10948;48.706;9.258;2023-08-01T08:05:55;96523.25;;;18.44;100.00
21574;BME280;10948;48.706;9.258;2023-08-01T08:08:20;96524.22;;;18.51;100.00
21574;BME280;10948;48.706;9.258;2023-08-01T08:10:45;96522.94;;;18.47;100.00
21574;BME280;10948;48.706;9.258;2023-08-01T08:13:10;96533.28;;;18.57;100.00
21574;BME280;10948;48.706;9.258;2023-08-01T08:15:35;96525.25;;;18.42;100.00
21574;BME280;10948;48.706;9.258;2023-08-01T08:18:01;96513.81;;;18.58;100.00
21574;BME280;10948;48.706;9.258;2023-08-01T08:20:29;96515.69;;;18.41;100.00
21574;BME280;10948;48.706;9.258;2023-08-01T08:22:54;96521.63;;;18.43;100.00
21574;BME280;10948;48.706;9.258;2023-08-01T08:25:19;96519.97;;;18.42;100.00
21574;BME280;10948;48.706;9.258;2023-08-01T08:27:45;96507.81;;;18.25;100.00
21574;BME280;10948;48.706;9.258;2023-08-01T08:30:10;96508.66;;;18.64;100.00
21574;BME280;10948;48.706;9.258;2023-08-01T08:32:36;96504.81;;;18.44;100.00
21574;BME280;10948;48.706;9.258;2023-08-01T08:35:02;96520.00;;;18.34;100.00
21574;BME280;10948;48.706;9.258;2023-08-01T08:37:27;96511.38;;;18.48;100.00
21574;BME280;10948;48.706;9.258;2023-08-01T08:39:52;96513.34;;;18.54;100.00
21574;BME280;10948;48.706;9.258;2023-08-01T08:42:18;96514.88;;;18.71;100.00
21574;BME280;10948;48.706;9.258;2023-08-01T08:44:44;96516.59;;;19.17;100.00
21574;BME280;10948;48.706;9.258;2023-08-01T08:47:10;96516.09;;;19.44;100.00
21574;BME280;10948;48.706;9.258;2023-08-01T08:49:35;96523.47;;;19.71;100.00
21574;BME280;10948;48.706;9.258;2023-08-01T08:52:02;96542.56;;;19.59;100.00
21574;BME280;10948;48.706;9.258;2023-08-01T08:54:28;96546.59;;;19.47;100.00
21574;BME280;10948;48.706;9.258;2023-08-01T08:56:54;96542.19;;;19.39;100.00
21574;BME280;10948;48.706;9.258;2023-08-01T08:59:20;96536.56;;;19.20;100.00
21574;BME280;10948;48.706;9.258;2023-08-01T09:01:46;96534.81;;;19.35;100.00
21574;BME280;10948;48.706;9.258;2023-08-01T09:04:11;96532.25;;;19.49;100.00
21574;BME280;10948;48.706;9.258;2023-08-01T09:06:41;96530.00;;;19.38;100.00
21574;BME280;10948;48.706;9.258;2023-08-01T09:09:12;96531.75;;;19.68;100.00
21574;BME280;10948;48.706;9.258;2023-08-01T09:11:42;96526.50;;;19.46;100.00
21574;BME280;10948;48.706;9.258;2023-08-01T09:14:08;96524.38;;;19.41;100.00
21574;BME280;10948;48.706;9.258;2023-08-01T09:16:34;96528.81;;;19.63;100.00
21574;BME280;10948;48.706;9.258;2023-08-01T09:19:00;96529.31;;;19.44;100.00
21574;BME280;10948;48.706;9.258;2023-08-01T09:21:25;96532.69;;;19.30;100.00
21574;BME280;10948;48.706;9.258;2023-08-01T09:23:50;96532.25;;;19.49;100.00
21574;BME280;10948;48.706;9.258;2023-08-01T09:26:17;96517.81;;;19.37;100.00
21574;BME280;10948;48.706;9.258;2023-08-01T09:28:42;96511.69;;;19.59;100.00
21574;BME280;10948;48.706;9.258;2023-08-01T09:31:09;96527.44;;;20.04;100.00
21574;BME280;10948;48.706;9.258;2023-08-01T09:33:41;96522.16;;;19.90;100.00
21574;BME280;10948;48.706;9.258;2023-08-01T09:36:07;96520.75;;;19.79;100.00
21574;BME280;10948;48.706;9.258;2023-08-01T09:38:34;96518.19;;;19.34;100.00
21574;BME280;10948;48.706;9.258;2023-08-01T09:41:00;96517.19;;;19.72;100.00
21574;BME280;10948;48.706;9.258;2023-08-01T09:43:26;96524.16;;;20.02;100.00
21574;BME280;10948;48.706;9.258;2023-08-01T09:45:59;96533.59;;;20.19;100.00
21574;BME280;10948;48.706;9.258;2023-08-01T09:48:25;96535.53;;;20.03;100.00
21574;BME280;10948;48.706;9.258;2023-08-01T09:50:51;96532.59;;;20.06;100.00
21574;BME280;10948;48.706;9.258;2023-08-01T09:53:18;96537.09;;;19.97;100.00
21574;BME280;10948;48.706;9.258;2023-08-01T09:55:43;96537.09;;;19.97;100.00
21574;BME280;10948;48.706;9.258;2023-08-01T09:58:11;96550.44;;;20.18;100.00
21574;BME280;10948;48.706;9.258;2023-08-01T10:00:38;96553.81;;;19.75;100.00
21574;BME280;10948;48.706;9.258;2023-08-01T10:03:03;96547.19;;;20.16;100.00
21574;BME280;10948;48.706;9.258;2023-08-01T10:05:30;96542.72;;;20.46;100.00
21574;BME280;10948;48.706;9.258;2023-08-01T10:08:00;96544.09;;;20.56;100.00
21574;BME280;10948;48.706;9.258;2023-08-01T10:10:26;96553.03;;;20.55;100.00
21574;BME280;10948;48.706;9.258;2023-08-01T10:12:51;96546.47;;;20.51;100.00
21574;BME280;10948;48.706;9.258;2023-08-01T10:15:19;96548.47;;;20.49;100.00
21574;BME280;10948;48.706;9.258;2023-08-01T10:17:44;96543.88;;;21.01;100.00
21574;BME280;10948;48.706;9.258;2023-08-01T10:20:09;96548.50;;;21.14;100.00
21574;BME280;10948;48.706;9.258;2023-08-01T10:22:35;96549.19;;;20.58;100.00
21574;BME280;10948;48.706;9.258;2023-08-01T10:25:01;96546.66;;;20.50;100.00
21574;BME280;10948;48.706;9.258;2023-08-01T10:27:27;96538.06;;;20.62;100.00
21574;BME280;10948;48.706;9.258;2023-08-01T10:29:56;96545.72;;;20.57;100.00
21574;BME280;10948;48.706;9.258;2023-08-01T10:32:27;96543.81;;;20.80;100.00
21574;BME280;10948;48.706;9.258;2023-08-01T10:34:52;96545.78;;;21.07;100.00
21574;BME280;10948;48.706;9.258;2023-08-01T10:37:18;96550.44;;;21.05;100.00
21574;BME280;10948;48.706;9.258;2023-08-01T10:39:43;96554.97;;;21.11;100.00
21574;BME280;10948;48.706;9.258;2023-08-01T10:42:08;96546.41;;;21.09;100.00
21574;BME280;10948;48.706;9.258;2023-08-01T10:44:44;96548.22;;;21.65;100.00
21574;BME280;10948;48.706;9.258;2023-08-01T10:47:09;96553.91;;;21.83;100.00
21574;BME280;10948;48.706;9.258;2023-08-01T10:49:38;96554.47;;;22.27;100.00
21574;BME280;10948;48.706;9.258;2023-08-01T10:52:04;96557.38;;;23.00;100.00
21574;BME280;10948;48.706;9.258;2023-08-01T10:54:40;96553.69;;;23.08;100.00
21574;BME280;10948;48.706;9.258;2023-08-01T10:57:05;96551.41;;;22.98;100.00
21574;BME280;10948;48.706;9.258;2023-08-01T10:59:31;96550.19;;;23.61;100.00
21574;BME280;10948;48.706;9.258;2023-08-01T11:01:58;96554.94;;;25.26;82.40
21574;BME280;10948;48.706;9.258;2023-08-01T11:04:24;96547.09;;;26.48;80.52
21574;BME280;10948;48.706;9.258;2023-08-01T11:06:50;96556.72;;;26.92;76.62
21574;BME280;10948;48.706;9.258;2023-08-01T11:09:16;96539.44;;;25.03;85.97
21574;BME280;10948;48.706;9.258;2023-08-01T11:11:42;96543.72;;;24.28;87.78
21574;BME280;10948;48.706;9.258;2023-08-01T11:14:07;96567.50;;;23.31;95.91
21574;BME280;10948;48.706;9.258;2023-08-01T11:16:33;96582.09;;;22.39;100.00
21574;BME280;10948;48.706;9.258;2023-08-01T11:18:59;96588.19;;;22.12;100.00
21574;BME280;10948;48.706;9.258;2023-08-01T11:21:26;96589.81;;;23.49;100.00
21574;BME280;10948;48.706;9.258;2023-08-01T11:23:56;96583.84;;;26.71;73.21
21574;BME280;10948;48.706;9.258;2023-08-01T11:26:22;96593.75;;;28.31;64.34
21574;BME280;10948;48.706;9.258;2023-08-01T11:28:48;96602.38;;;27.74;62.69
21574;BME280;10948;48.706;9.258;2023-08-01T11:31:15;96597.28;;;28.13;60.59
21574;BME280;10948;48.706;9.258;2023-08-01T11:33:40;96606.41;;;27.83;60.19
21574;BME280;10948;48.706;9.258;2023-08-01T11:36:06;96601.63;;;28.26;58.18
21574;BME280;10948;48.706;9.258;2023-08-01T11:38:32;96608.31;;;28.05;56.65
21574;BME280;10948;48.706;9.258;2023-08-01T11:40:59;96612.84;;;27.46;57.32
21574;BME280;10948;48.706;9.258;2023-08-01T11:43:25;96600.97;;;27.24;55.83
21574;BME280;10948;48.706;9.258;2023-08-01T11:45:56;96615.75;;;24.72;65.73
21574;BME280;10948;48.706;9.258;2023-08-01T11:48:24;96619.78;;;25.51;62.54
21574;BME280;10948;48.706;9.258;2023-08-01T11:50:49;96608.19;;;25.32;60.42
21574;BME280;10948;48.706;9.258;2023-08-01T11:53:22;96605.97;;;26.29;57.58
21574;BME280;10948;48.706;9.258;2023-08-01T11:55:48;96619.81;;;27.11;57.50
21574;BME280;10948;48.706;9.258;2023-08-01T11:58:14;96611.91;;;27.70;54.46
21574;BME280;10948;48.706;9.258;2023-08-01T12:00:40;96621.53;;;27.41;54.92
21574;BME280;10948;48.706;9.258;2023-08-01T12:03:09;96622.34;;;27.42;52.72
21574;BME280;10948;48.706;9.258;2023-08-01T12:05:38;96605.53;;;26.81;53.54
21574;BME280;10948;48.706;9.258;2023-08-01T12:08:10;96619.56;;;26.52;53.49
21574;BME280;10948;48.706;9.258;2023-08-01T12:10:53;96606.59;;;26.98;53.60
21574;BME280;10948;48.706;9.258;2023-08-01T12:13:19;96612.97;;;26.79;53.38
21574;BME280;10948;48.706;9.258;2023-08-01T12:15:46;96622.09;;;25.41;56.60
21574;BME280;10948;48.706;9.258;2023-08-01T12:18:11;96619.13;;;27.51;52.79
21574;BME280;10948;48.706;9.258;2023-08-01T12:20:43;96616.09;;;26.94;53.67
21574;BME280;10948;48.706;9.258;2023-08-01T12:23:09;96615.50;;;27.93;51.94
21574;BME280;10948;48.706;9.258;2023-08-01T12:25:34;96613.84;;;28.33;51.73
21574;BME280;10948;48.706;9.258;2023-08-01T12:27:59;96619.09;;;27.22;53.19
21574;BME280;10948;48.706;9.258;2023-08-01T12:30:25;96611.75;;;26.75;53.04
21574;BME280;10948;48.706;9.258;2023-08-01T12:32:50;96620.47;;;27.06;54.27
21574;BME280;10948;48.706;9.258;2023-08-01T12:35:15;96611.84;;;28.81;50.12
21574;BME280;10948;48.706;9.258;2023-08-01T12:37:41;96619.81;;;27.47;51.00
21574;BME280;10948;48.706;9.258;2023-08-01T12:40:06;96625.47;;;29.03;48.08
21574;BME280;10948;48.706;9.258;2023-08-01T12:42:32;96610.84;;;27.89;48.91
21574;BME280;10948;48.706;9.258;2023-08-01T12:44:57;96629.53;;;27.05;49.41